EAG5501 FSIA-FMMI
Flight info
| Callsign | EAG5501 |
|---|---|
| Flight time | 2h 14m |
| Altitude | 40000 |
| Route | IMPOX1B IMPOX DCT NORSI/N0484F410 UL441 MIROV/N0488F400 UL441 GATLA DCT TAPAL TAPAL1D |
| Aircraft | A359/H-SDE2E3GHIJ3J4J5LM1ORWXY/LB1D1 |
Departure
| Time | 2026-04-21 19:11 |
|---|---|
| Airport | Seychelles International Airport (FSIA) |
Arrival
| Time | 2026-04-21 21:26 |
|---|---|
| Airport | Ivato International Airport (FMMI) |
| Time | Latitude | Longitude | Altitude | Speed | Heading |
|---|---|---|---|---|---|
| 2026-04-21 19:04 | -4.67033 | 55.51170 | 27 ft | 0 kts | 215° |
| 2026-04-21 19:06 | -4.67022 | 55.51178 | 32 ft | 4 kts | 223° |
| 2026-04-21 19:06 | -4.67006 | 55.51199 | 22 ft | 4 kts | 251° |
| 2026-04-21 19:06 | -4.67003 | 55.51223 | 24 ft | 4 kts | 290° |
| 2026-04-21 19:07 | -4.67011 | 55.51238 | 25 ft | 0 kts | 308° |
| 2026-04-21 19:09 | -4.67007 | 55.51233 | 27 ft | 3 kts | 308° |
| 2026-04-21 19:09 | -4.66977 | 55.51207 | 27 ft | 8 kts | 336° |
| 2026-04-21 19:09 | -4.66900 | 55.51186 | 27 ft | 15 kts | 328° |
| 2026-04-21 19:09 | -4.66824 | 55.51091 | 27 ft | 20 kts | 304° |
| 2026-04-21 19:10 | -4.66748 | 55.51024 | 27 ft | 2 kts | 9° |
| 2026-04-21 19:10 | -4.66719 | 55.51040 | 27 ft | 10 kts | 30° |
| 2026-04-21 19:10 | -4.66693 | 55.51086 | 29 ft | 6 kts | 95° |
| 2026-04-21 19:10 | -4.66716 | 55.51131 | 29 ft | 9 kts | 123° |
| 2026-04-21 19:11 | -4.66852 | 55.51328 | 29 ft | 70 kts | 124° |
| 2026-04-21 19:11 | -4.67261 | 55.51922 | 29 ft | 133 kts | 124° |
| 2026-04-21 19:11 | -4.67884 | 55.52827 | 184 ft | 171 kts | 124° |
| 2026-04-21 19:11 | -4.68555 | 55.53796 | 897 ft | 169 kts | 124° |
| 2026-04-21 19:12 | -4.69268 | 55.54812 | 1401 ft | 186 kts | 124° |
| 2026-04-21 19:12 | -4.70060 | 55.55941 | 1751 ft | 210 kts | 124° |
| 2026-04-21 19:12 | -4.70938 | 55.57192 | 2252 ft | 225 kts | 124° |
| 2026-04-21 19:12 | -4.72017 | 55.58379 | 2670 ft | 246 kts | 144° |
| 2026-04-21 19:13 | -4.73693 | 55.58870 | 3219 ft | 261 kts | 182° |
| 2026-04-21 19:13 | -4.75399 | 55.58271 | 3917 ft | 266 kts | 217° |
| 2026-04-21 19:13 | -4.76793 | 55.57021 | 4674 ft | 271 kts | 224° |
| 2026-04-21 19:13 | -4.78168 | 55.55694 | 5402 ft | 276 kts | 223° |
| 2026-04-21 19:14 | -4.79577 | 55.54403 | 6168 ft | 279 kts | 221° |
| 2026-04-21 19:14 | -4.81034 | 55.53122 | 6920 ft | 282 kts | 220° |
| 2026-04-21 19:14 | -4.82531 | 55.51835 | 7699 ft | 285 kts | 220° |
| 2026-04-21 19:14 | -4.84056 | 55.50541 | 8505 ft | 288 kts | 219° |
| 2026-04-21 19:15 | -4.85601 | 55.49239 | 9312 ft | 292 kts | 219° |
| 2026-04-21 19:15 | -4.87177 | 55.47915 | 10071 ft | 297 kts | 219° |
| 2026-04-21 19:15 | -4.88810 | 55.46547 | 10468 ft | 315 kts | 219° |
| 2026-04-21 19:15 | -4.90526 | 55.45110 | 10813 ft | 333 kts | 219° |
| 2026-04-21 19:16 | -4.92352 | 55.43582 | 11152 ft | 350 kts | 219° |
| 2026-04-21 19:16 | -4.94263 | 55.41983 | 11492 ft | 364 kts | 219° |
| 2026-04-21 19:16 | -4.96233 | 55.40335 | 11970 ft | 372 kts | 219° |
| 2026-04-21 19:16 | -4.98240 | 55.38655 | 12520 ft | 377 kts | 219° |
| 2026-04-21 19:17 | -5.02302 | 55.35254 | 13652 ft | 386 kts | 219° |
| 2026-04-21 19:17 | -5.04380 | 55.33515 | 14129 ft | 391 kts | 219° |
| 2026-04-21 19:17 | -5.06490 | 55.31749 | 14646 ft | 394 kts | 219° |
| 2026-04-21 19:18 | -5.08601 | 55.29982 | 15186 ft | 396 kts | 219° |
| 2026-04-21 19:18 | -5.10710 | 55.28243 | 15696 ft | 399 kts | 217° |
| 2026-04-21 19:18 | -5.13022 | 55.26670 | 16189 ft | 402 kts | 211° |
| 2026-04-21 19:18 | -5.15455 | 55.25271 | 16746 ft | 404 kts | 207° |
| 2026-04-21 19:19 | -5.17957 | 55.23951 | 17240 ft | 406 kts | 206° |
| 2026-04-21 19:19 | -5.20484 | 55.22656 | 17760 ft | 409 kts | 206° |
| 2026-04-21 19:19 | -5.23027 | 55.21350 | 18251 ft | 412 kts | 206° |
| 2026-04-21 19:19 | -5.25583 | 55.20020 | 18687 ft | 416 kts | 207° |
| 2026-04-21 19:20 | -5.28125 | 55.18677 | 19079 ft | 419 kts | 207° |
| 2026-04-21 19:20 | -5.30711 | 55.17297 | 19498 ft | 422 kts | 208° |
| 2026-04-21 19:20 | -5.33312 | 55.15901 | 19919 ft | 425 kts | 208° |
| 2026-04-21 19:20 | -5.35933 | 55.14489 | 20312 ft | 429 kts | 208° |
| 2026-04-21 19:21 | -5.38575 | 55.13065 | 20762 ft | 431 kts | 208° |
| 2026-04-21 19:21 | -5.41230 | 55.11633 | 21193 ft | 434 kts | 208° |
| 2026-04-21 19:21 | -5.43881 | 55.10205 | 21619 ft | 438 kts | 209° |
| 2026-04-21 19:21 | -5.46571 | 55.08756 | 22078 ft | 439 kts | 209° |
| 2026-04-21 19:22 | -5.49276 | 55.07300 | 22505 ft | 443 kts | 209° |
| 2026-04-21 19:22 | -5.52003 | 55.05832 | 22941 ft | 446 kts | 209° |
| 2026-04-21 19:22 | -5.54739 | 55.04359 | 23385 ft | 448 kts | 209° |
| 2026-04-21 19:22 | -5.57504 | 55.02871 | 23741 ft | 451 kts | 209° |
| 2026-04-21 19:23 | -5.60283 | 55.01375 | 24102 ft | 454 kts | 209° |
| 2026-04-21 19:23 | -5.63077 | 54.99870 | 24464 ft | 456 kts | 209° |
| 2026-04-21 19:23 | -5.65853 | 54.98375 | 24830 ft | 459 kts | 209° |
| 2026-04-21 19:23 | -5.68682 | 54.96852 | 25220 ft | 462 kts | 210° |
| 2026-04-21 19:24 | -5.71520 | 54.95323 | 25625 ft | 465 kts | 210° |
| 2026-04-21 19:24 | -5.74389 | 54.93777 | 26053 ft | 468 kts | 210° |
| 2026-04-21 19:24 | -5.77268 | 54.92226 | 26488 ft | 471 kts | 210° |
| 2026-04-21 19:24 | -5.80132 | 54.90682 | 26921 ft | 474 kts | 210° |
| 2026-04-21 19:25 | -5.83049 | 54.89111 | 27348 ft | 477 kts | 210° |
| 2026-04-21 19:25 | -5.85987 | 54.87527 | 27800 ft | 480 kts | 210° |
| 2026-04-21 19:25 | -5.88941 | 54.85935 | 28231 ft | 483 kts | 210° |
| 2026-04-21 19:25 | -5.91914 | 54.84332 | 28656 ft | 486 kts | 210° |
| 2026-04-21 19:26 | -5.94917 | 54.82712 | 29082 ft | 489 kts | 210° |
| 2026-04-21 19:26 | -5.97892 | 54.81108 | 29473 ft | 493 kts | 210° |
| 2026-04-21 19:26 | -6.00923 | 54.79474 | 29878 ft | 496 kts | 211° |
| 2026-04-21 19:26 | -6.03994 | 54.77817 | 30212 ft | 499 kts | 211° |
| 2026-04-21 19:27 | -6.07067 | 54.76160 | 30538 ft | 501 kts | 211° |
| 2026-04-21 19:27 | -6.10116 | 54.74515 | 30855 ft | 504 kts | 211° |
| 2026-04-21 19:27 | -6.13216 | 54.72842 | 31165 ft | 507 kts | 211° |
| 2026-04-21 19:27 | -6.16343 | 54.71155 | 31455 ft | 509 kts | 211° |
| 2026-04-21 19:28 | -6.19476 | 54.69464 | 31764 ft | 511 kts | 211° |
| 2026-04-21 19:28 | -6.22624 | 54.67765 | 32045 ft | 514 kts | 211° |
| 2026-04-21 19:28 | -6.25783 | 54.66060 | 32324 ft | 516 kts | 211° |
| 2026-04-21 19:28 | -6.28951 | 54.64349 | 32600 ft | 518 kts | 211° |
| 2026-04-21 19:29 | -6.32077 | 54.62662 | 33001 ft | 516 kts | 211° |
| 2026-04-21 19:29 | -6.35245 | 54.60952 | 33421 ft | 515 kts | 211° |
| 2026-04-21 19:29 | -6.38416 | 54.59240 | 33797 ft | 514 kts | 211° |
| 2026-04-21 19:29 | -6.41568 | 54.57538 | 34138 ft | 514 kts | 211° |
| 2026-04-21 19:30 | -6.44724 | 54.55833 | 34494 ft | 512 kts | 211° |
| 2026-04-21 19:30 | -6.47820 | 54.54160 | 34861 ft | 510 kts | 211° |
| 2026-04-21 19:30 | -6.50959 | 54.52464 | 35218 ft | 508 kts | 211° |
| 2026-04-21 19:30 | -6.54078 | 54.50778 | 35545 ft | 507 kts | 211° |
| 2026-04-21 19:31 | -6.57147 | 54.49119 | 35874 ft | 506 kts | 211° |
| 2026-04-21 19:31 | -6.60249 | 54.47442 | 36199 ft | 505 kts | 211° |
| 2026-04-21 19:31 | -6.63343 | 54.45768 | 36508 ft | 504 kts | 211° |
| 2026-04-21 19:31 | -6.66443 | 54.44091 | 36832 ft | 503 kts | 211° |
| 2026-04-21 19:32 | -6.69483 | 54.42447 | 37157 ft | 501 kts | 211° |
| 2026-04-21 19:32 | -6.72555 | 54.40785 | 37464 ft | 500 kts | 211° |
| 2026-04-21 19:32 | -6.75624 | 54.39124 | 37784 ft | 499 kts | 211° |
| 2026-04-21 19:32 | -6.78684 | 54.37468 | 38068 ft | 498 kts | 211° |
| 2026-04-21 19:33 | -6.80708 | 54.36373 | 38264 ft | 497 kts | 211° |
| 2026-04-21 19:33 | -6.84783 | 54.34167 | 38632 ft | 495 kts | 211° |
| 2026-04-21 19:33 | -6.87777 | 54.32546 | 38870 ft | 494 kts | 211° |
| 2026-04-21 19:33 | -6.90805 | 54.30906 | 39100 ft | 493 kts | 211° |
| 2026-04-21 19:34 | -6.93833 | 54.29267 | 39332 ft | 491 kts | 211° |
| 2026-04-21 19:34 | -6.96837 | 54.27639 | 39546 ft | 490 kts | 211° |
| 2026-04-21 19:34 | -6.99848 | 54.26008 | 39763 ft | 489 kts | 211° |
| 2026-04-21 19:34 | -7.02850 | 54.24381 | 39873 ft | 489 kts | 211° |
| 2026-04-21 19:35 | -7.11782 | 54.19541 | 39887 ft | 487 kts | 212° |
| 2026-04-21 19:36 | -7.17760 | 54.16299 | 39884 ft | 487 kts | 212° |
| 2026-04-21 19:36 | -7.23703 | 54.13076 | 39895 ft | 487 kts | 212° |
| 2026-04-21 19:36 | -7.26702 | 54.11450 | 40019 ft | 487 kts | 212° |
| 2026-04-21 19:37 | -7.29686 | 54.09825 | 40217 ft | 486 kts | 212° |
| 2026-04-21 19:37 | -7.32657 | 54.08193 | 40431 ft | 485 kts | 212° |
| 2026-04-21 19:37 | -7.35607 | 54.06567 | 40627 ft | 483 kts | 212° |
| 2026-04-21 19:37 | -7.38523 | 54.04960 | 40808 ft | 483 kts | 212° |
| 2026-04-21 19:38 | -7.41474 | 54.03334 | 40882 ft | 483 kts | 212° |
| 2026-04-21 19:38 | -7.46415 | 54.00614 | 40886 ft | 482 kts | 212° |
| 2026-04-21 19:39 | -7.53264 | 53.96850 | 40883 ft | 480 kts | 212° |
| 2026-04-21 19:39 | -7.59136 | 53.93622 | 40884 ft | 480 kts | 212° |
| 2026-04-21 19:40 | -7.64973 | 53.90411 | 40886 ft | 480 kts | 212° |
| 2026-04-21 19:40 | -7.70840 | 53.87184 | 40881 ft | 479 kts | 212° |
| 2026-04-21 19:41 | -7.76700 | 53.83959 | 40889 ft | 479 kts | 212° |
| 2026-04-21 19:41 | -7.82558 | 53.80734 | 40891 ft | 479 kts | 212° |
| 2026-04-21 19:42 | -7.87435 | 53.78048 | 40894 ft | 479 kts | 213° |
| 2026-04-21 19:42 | -7.94250 | 53.74295 | 40898 ft | 479 kts | 212° |
| 2026-04-21 19:43 | -7.99113 | 53.71616 | 40879 ft | 479 kts | 213° |
| 2026-04-21 19:43 | -8.05964 | 53.67839 | 40885 ft | 480 kts | 213° |
| 2026-04-21 19:44 | -8.10841 | 53.65150 | 40894 ft | 480 kts | 213° |
| 2026-04-21 19:44 | -8.16702 | 53.61918 | 40892 ft | 480 kts | 213° |
| 2026-04-21 19:45 | -8.22566 | 53.58682 | 40892 ft | 480 kts | 213° |
| 2026-04-21 19:45 | -8.28400 | 53.55463 | 40890 ft | 480 kts | 213° |
| 2026-04-21 19:46 | -8.34272 | 53.52220 | 40894 ft | 481 kts | 213° |
| 2026-04-21 19:46 | -8.40149 | 53.48975 | 40891 ft | 481 kts | 213° |
| 2026-04-21 19:47 | -8.45980 | 53.45753 | 40899 ft | 481 kts | 213° |
| 2026-04-21 19:47 | -8.51866 | 53.42500 | 40892 ft | 481 kts | 213° |
| 2026-04-21 19:48 | -8.57745 | 53.39250 | 40897 ft | 481 kts | 213° |
| 2026-04-21 19:48 | -8.63597 | 53.36014 | 40897 ft | 481 kts | 213° |
| 2026-04-21 19:49 | -8.69485 | 53.32756 | 40898 ft | 481 kts | 213° |
| 2026-04-21 19:49 | -8.75340 | 53.29516 | 40896 ft | 481 kts | 213° |
| 2026-04-21 19:50 | -8.81222 | 53.26259 | 40896 ft | 481 kts | 213° |
| 2026-04-21 19:50 | -8.87101 | 53.23003 | 40900 ft | 481 kts | 213° |
| 2026-04-21 19:51 | -8.92936 | 53.19771 | 40898 ft | 480 kts | 213° |
| 2026-04-21 19:51 | -8.98820 | 53.16509 | 40896 ft | 480 kts | 213° |
| 2026-04-21 19:52 | -9.04646 | 53.13279 | 40899 ft | 480 kts | 213° |
| 2026-04-21 19:52 | -9.10520 | 53.10020 | 40903 ft | 480 kts | 213° |
| 2026-04-21 19:53 | -9.16385 | 53.06766 | 40903 ft | 480 kts | 213° |
| 2026-04-21 19:53 | -9.22210 | 53.03533 | 40904 ft | 480 kts | 213° |
| 2026-04-21 19:54 | -9.28068 | 53.00280 | 40902 ft | 479 kts | 213° |
| 2026-04-21 19:54 | -9.33926 | 52.97026 | 40906 ft | 479 kts | 213° |
| 2026-04-21 19:55 | -9.39736 | 52.93796 | 40907 ft | 479 kts | 213° |
| 2026-04-21 19:55 | -9.45588 | 52.90543 | 40908 ft | 479 kts | 213° |
| 2026-04-21 19:56 | -9.51406 | 52.87307 | 40909 ft | 479 kts | 213° |
| 2026-04-21 19:56 | -9.57256 | 52.84052 | 40911 ft | 479 kts | 213° |
| 2026-04-21 19:57 | -9.63101 | 52.80799 | 40912 ft | 479 kts | 213° |
| 2026-04-21 19:57 | -9.68946 | 52.77544 | 40911 ft | 479 kts | 213° |
| 2026-04-21 19:58 | -9.74783 | 52.74292 | 40911 ft | 479 kts | 213° |
| 2026-04-21 19:58 | -9.80585 | 52.71059 | 40911 ft | 478 kts | 213° |
| 2026-04-21 19:59 | -9.86425 | 52.67803 | 40911 ft | 478 kts | 213° |
| 2026-04-21 19:59 | -9.92269 | 52.64544 | 40928 ft | 478 kts | 213° |
| 2026-04-21 20:00 | -9.98109 | 52.61285 | 40917 ft | 478 kts | 213° |
| 2026-04-21 20:00 | -10.03918 | 52.58049 | 40920 ft | 479 kts | 213° |
| 2026-04-21 20:01 | -10.09754 | 52.54791 | 40919 ft | 478 kts | 213° |
| 2026-04-21 20:01 | -10.15594 | 52.51528 | 40915 ft | 478 kts | 213° |
| 2026-04-21 20:02 | -10.21423 | 52.48272 | 40923 ft | 478 kts | 213° |
| 2026-04-21 20:02 | -10.27233 | 52.45026 | 40916 ft | 477 kts | 213° |
| 2026-04-21 20:03 | -10.33021 | 52.41791 | 40916 ft | 477 kts | 213° |
| 2026-04-21 20:03 | -10.38845 | 52.38533 | 40919 ft | 477 kts | 213° |
| 2026-04-21 20:04 | -10.44669 | 52.35275 | 40926 ft | 477 kts | 213° |
| 2026-04-21 20:04 | -10.50485 | 52.32020 | 40928 ft | 477 kts | 213° |
| 2026-04-21 20:05 | -10.56258 | 52.28788 | 40921 ft | 477 kts | 213° |
| 2026-04-21 20:05 | -10.62074 | 52.25530 | 40924 ft | 476 kts | 213° |
| 2026-04-21 20:06 | -10.67854 | 52.22291 | 40929 ft | 476 kts | 213° |
| 2026-04-21 20:06 | -10.73662 | 52.19034 | 40936 ft | 476 kts | 213° |
| 2026-04-21 20:07 | -10.79450 | 52.15788 | 40924 ft | 474 kts | 212° |
| 2026-04-21 20:07 | -10.85234 | 52.12543 | 40928 ft | 474 kts | 212° |
| 2026-04-21 20:08 | -10.90972 | 52.09321 | 40931 ft | 474 kts | 212° |
| 2026-04-21 20:08 | -10.96749 | 52.06076 | 40933 ft | 474 kts | 212° |
| 2026-04-21 20:09 | -11.02528 | 52.02828 | 40934 ft | 473 kts | 212° |
| 2026-04-21 20:09 | -11.08298 | 51.99584 | 40933 ft | 473 kts | 212° |
| 2026-04-21 20:10 | -11.14072 | 51.96337 | 40934 ft | 473 kts | 212° |
| 2026-04-21 20:10 | -11.19796 | 51.93117 | 40937 ft | 473 kts | 212° |
| 2026-04-21 20:11 | -11.25566 | 51.89869 | 40933 ft | 473 kts | 212° |
| 2026-04-21 20:11 | -11.31339 | 51.86616 | 40936 ft | 473 kts | 212° |
| 2026-04-21 20:12 | -11.37077 | 51.83384 | 40935 ft | 473 kts | 212° |
| 2026-04-21 20:12 | -11.42850 | 51.80129 | 40935 ft | 473 kts | 211° |
| 2026-04-21 20:13 | -11.48574 | 51.76901 | 40941 ft | 472 kts | 211° |
| 2026-04-21 20:13 | -11.54342 | 51.73646 | 40943 ft | 472 kts | 212° |
| 2026-04-21 20:14 | -11.60101 | 51.70396 | 40944 ft | 472 kts | 212° |
| 2026-04-21 20:14 | -11.65831 | 51.67159 | 40944 ft | 472 kts | 212° |
| 2026-04-21 20:15 | -11.71595 | 51.63910 | 40944 ft | 472 kts | 211° |
| 2026-04-21 20:15 | -11.77319 | 51.60679 | 40942 ft | 472 kts | 211° |
| 2026-04-21 20:16 | -11.83091 | 51.57418 | 40944 ft | 472 kts | 211° |
| 2026-04-21 20:16 | -11.88813 | 51.54184 | 40944 ft | 472 kts | 211° |
| 2026-04-21 20:17 | -11.94565 | 51.50933 | 40946 ft | 471 kts | 211° |
| 2026-04-21 20:17 | -12.00319 | 51.47681 | 40944 ft | 471 kts | 211° |
| 2026-04-21 20:18 | -12.05091 | 51.44982 | 40946 ft | 471 kts | 211° |
| 2026-04-21 20:18 | -12.11760 | 51.41207 | 40948 ft | 471 kts | 211° |
| 2026-04-21 20:19 | -12.17505 | 51.37961 | 40946 ft | 471 kts | 211° |
| 2026-04-21 20:19 | -12.23244 | 51.34711 | 40949 ft | 471 kts | 211° |
| 2026-04-21 20:20 | -12.28946 | 51.31480 | 40948 ft | 470 kts | 211° |
| 2026-04-21 20:20 | -12.34667 | 51.28236 | 40957 ft | 470 kts | 210° |
| 2026-04-21 20:21 | -12.40392 | 51.24991 | 40952 ft | 470 kts | 210° |
| 2026-04-21 20:21 | -12.46085 | 51.21763 | 40955 ft | 469 kts | 210° |
| 2026-04-21 20:22 | -12.51809 | 51.18515 | 40956 ft | 469 kts | 210° |
| 2026-04-21 20:22 | -12.60350 | 51.13665 | 40960 ft | 469 kts | 210° |
| 2026-04-21 20:23 | -12.66067 | 51.10416 | 40957 ft | 469 kts | 210° |
| 2026-04-21 20:23 | -12.71782 | 51.07168 | 40957 ft | 468 kts | 210° |
| 2026-04-21 20:24 | -12.77462 | 51.03937 | 40960 ft | 468 kts | 210° |
| 2026-04-21 20:24 | -12.83170 | 51.00689 | 40961 ft | 469 kts | 210° |
| 2026-04-21 20:25 | -12.88842 | 50.97458 | 40960 ft | 469 kts | 210° |
| 2026-04-21 20:25 | -12.94543 | 50.94211 | 40969 ft | 468 kts | 210° |
| 2026-04-21 20:26 | -13.00245 | 50.90962 | 40964 ft | 468 kts | 210° |
| 2026-04-21 20:26 | -13.05950 | 50.87709 | 40960 ft | 468 kts | 210° |
| 2026-04-21 20:27 | -13.11642 | 50.84460 | 40965 ft | 468 kts | 209° |
| 2026-04-21 20:27 | -13.17306 | 50.81227 | 40978 ft | 468 kts | 209° |
| 2026-04-21 20:28 | -13.23005 | 50.77972 | 40973 ft | 468 kts | 209° |
| 2026-04-21 20:28 | -13.28674 | 50.74732 | 40981 ft | 468 kts | 209° |
| 2026-04-21 20:29 | -13.34376 | 50.71472 | 40974 ft | 468 kts | 209° |
| 2026-04-21 20:29 | -13.40073 | 50.68211 | 40977 ft | 468 kts | 209° |
| 2026-04-21 20:30 | -13.45770 | 50.64951 | 40985 ft | 467 kts | 209° |
| 2026-04-21 20:30 | -13.51430 | 50.61710 | 40985 ft | 467 kts | 209° |
| 2026-04-21 20:31 | -13.57116 | 50.58452 | 40995 ft | 467 kts | 209° |
| 2026-04-21 20:31 | -13.61832 | 50.55747 | 40991 ft | 467 kts | 208° |
| 2026-04-21 20:32 | -13.68446 | 50.51954 | 40990 ft | 468 kts | 208° |
| 2026-04-21 20:32 | -13.73214 | 50.49215 | 40992 ft | 467 kts | 208° |
| 2026-04-21 20:33 | -13.78866 | 50.45965 | 40995 ft | 467 kts | 208° |
| 2026-04-21 20:33 | -13.85471 | 50.42166 | 40994 ft | 467 kts | 208° |
| 2026-04-21 20:34 | -13.90239 | 50.39423 | 41003 ft | 468 kts | 208° |
| 2026-04-21 20:34 | -13.95883 | 50.36174 | 41002 ft | 468 kts | 208° |
| 2026-04-21 20:35 | -14.01581 | 50.32893 | 41003 ft | 468 kts | 208° |
| 2026-04-21 20:35 | -14.07236 | 50.29634 | 41005 ft | 468 kts | 208° |
| 2026-04-21 20:36 | -14.12924 | 50.26354 | 41006 ft | 468 kts | 208° |
| 2026-04-21 20:36 | -14.18584 | 50.23088 | 41011 ft | 468 kts | 208° |
| 2026-04-21 20:37 | -14.24269 | 50.19807 | 41013 ft | 468 kts | 208° |
| 2026-04-21 20:37 | -14.29976 | 50.16520 | 41012 ft | 470 kts | 208° |
| 2026-04-21 20:38 | -14.35694 | 50.13313 | 41026 ft | 470 kts | 207° |
| 2026-04-21 20:38 | -14.41454 | 50.10105 | 41024 ft | 470 kts | 207° |
| 2026-04-21 20:39 | -14.47217 | 50.06885 | 41022 ft | 469 kts | 207° |
| 2026-04-21 20:39 | -14.52924 | 50.03685 | 41028 ft | 470 kts | 207° |
| 2026-04-21 20:40 | -14.58673 | 50.00457 | 41033 ft | 470 kts | 207° |
| 2026-04-21 20:40 | -14.64420 | 49.97226 | 41034 ft | 468 kts | 207° |
| 2026-04-21 20:41 | -14.70114 | 49.94026 | 41043 ft | 468 kts | 207° |
| 2026-04-21 20:41 | -14.75845 | 49.90803 | 41052 ft | 468 kts | 207° |
| 2026-04-21 20:42 | -14.81578 | 49.87578 | 41062 ft | 468 kts | 207° |
| 2026-04-21 20:42 | -14.87280 | 49.84367 | 41066 ft | 467 kts | 206° |
| 2026-04-21 20:43 | -14.92992 | 49.81148 | 41065 ft | 466 kts | 206° |
| 2026-04-21 20:43 | -14.98666 | 49.77949 | 41079 ft | 466 kts | 206° |
| 2026-04-21 20:44 | -15.04368 | 49.74707 | 41076 ft | 467 kts | 207° |
| 2026-04-21 20:44 | -15.10016 | 49.71379 | 41079 ft | 467 kts | 207° |
| 2026-04-21 20:45 | -15.15663 | 49.68034 | 41080 ft | 467 kts | 207° |
| 2026-04-21 20:45 | -15.21281 | 49.64724 | 41079 ft | 467 kts | 207° |
| 2026-04-21 20:46 | -15.26942 | 49.61397 | 41074 ft | 467 kts | 207° |
| 2026-04-21 20:46 | -15.32591 | 49.58077 | 41078 ft | 467 kts | 207° |
| 2026-04-21 20:47 | -15.38206 | 49.54775 | 41079 ft | 466 kts | 206° |
| 2026-04-21 20:47 | -15.43857 | 49.51448 | 41079 ft | 466 kts | 206° |
| 2026-04-21 20:48 | -15.49502 | 49.48122 | 41082 ft | 466 kts | 206° |
| 2026-04-21 20:48 | -15.55142 | 49.44799 | 41080 ft | 466 kts | 206° |
| 2026-04-21 20:49 | -15.60747 | 49.41494 | 41084 ft | 465 kts | 206° |
| 2026-04-21 20:49 | -15.66382 | 49.38168 | 41081 ft | 465 kts | 206° |
| 2026-04-21 20:50 | -15.72016 | 49.34841 | 41083 ft | 465 kts | 206° |
| 2026-04-21 20:50 | -15.77607 | 49.31538 | 41084 ft | 465 kts | 206° |
| 2026-04-21 20:51 | -15.83238 | 49.28209 | 41080 ft | 465 kts | 206° |
| 2026-04-21 20:51 | -15.88869 | 49.24877 | 41078 ft | 465 kts | 206° |
| 2026-04-21 20:52 | -15.94493 | 49.21547 | 41080 ft | 465 kts | 206° |
| 2026-04-21 20:52 | -16.00086 | 49.18234 | 41081 ft | 465 kts | 206° |
| 2026-04-21 20:53 | -16.05712 | 49.14917 | 41075 ft | 464 kts | 206° |
| 2026-04-21 20:53 | -16.11367 | 49.11620 | 41081 ft | 465 kts | 206° |
| 2026-04-21 20:54 | -16.16986 | 49.08345 | 41083 ft | 465 kts | 206° |
| 2026-04-21 20:54 | -16.22638 | 49.05044 | 41080 ft | 465 kts | 206° |
| 2026-04-21 20:55 | -16.25424 | 49.03415 | 42487 ft | 465 kts | 208° |
| 2026-04-21 20:55 | -16.28219 | 49.01779 | 41037 ft | 467 kts | 206° |
| 2026-04-21 20:55 | -16.33904 | 48.98451 | 41088 ft | 466 kts | 206° |
| 2026-04-21 20:56 | -16.39552 | 48.95141 | 41094 ft | 465 kts | 206° |
| 2026-04-21 20:56 | -16.45164 | 48.91851 | 41093 ft | 465 kts | 206° |
| 2026-04-21 20:57 | -16.50804 | 48.88543 | 41097 ft | 465 kts | 206° |
| 2026-04-21 20:57 | -16.56447 | 48.85231 | 41099 ft | 465 kts | 206° |
| 2026-04-21 20:58 | -16.62053 | 48.81938 | 41102 ft | 465 kts | 206° |
| 2026-04-21 20:58 | -16.67516 | 48.78292 | 41102 ft | 467 kts | 212° |
| 2026-04-21 20:59 | -16.72885 | 48.74440 | 41106 ft | 467 kts | 211° |
| 2026-04-21 20:59 | -16.78242 | 48.70654 | 41105 ft | 466 kts | 211° |
| 2026-04-21 21:00 | -16.83632 | 48.66865 | 41107 ft | 466 kts | 211° |
| 2026-04-21 21:00 | -16.88974 | 48.63114 | 41106 ft | 466 kts | 211° |
| 2026-04-21 21:01 | -16.94366 | 48.59328 | 41108 ft | 466 kts | 211° |
| 2026-04-21 21:01 | -16.99750 | 48.55545 | 41104 ft | 466 kts | 211° |
| 2026-04-21 21:02 | -17.05146 | 48.51751 | 41112 ft | 466 kts | 211° |
| 2026-04-21 21:02 | -17.10396 | 48.48058 | 41113 ft | 466 kts | 211° |
| 2026-04-21 21:03 | -17.15739 | 48.44296 | 41110 ft | 466 kts | 211° |
| 2026-04-21 21:03 | -17.21111 | 48.40512 | 41113 ft | 466 kts | 211° |
| 2026-04-21 21:04 | -17.26504 | 48.36709 | 41112 ft | 467 kts | 211° |
| 2026-04-21 21:04 | -17.31894 | 48.32906 | 41116 ft | 467 kts | 211° |
| 2026-04-21 21:05 | -17.37259 | 48.29118 | 41118 ft | 466 kts | 211° |
| 2026-04-21 21:05 | -17.42650 | 48.25309 | 41115 ft | 466 kts | 211° |
| 2026-04-21 21:06 | -17.45341 | 48.23407 | 40924 ft | 466 kts | 211° |
| 2026-04-21 21:06 | -17.47994 | 48.21529 | 40544 ft | 464 kts | 211° |
| 2026-04-21 21:06 | -17.50677 | 48.19631 | 39778 ft | 466 kts | 210° |
| 2026-04-21 21:06 | -17.53377 | 48.17722 | 38973 ft | 471 kts | 210° |
| 2026-04-21 21:07 | -17.56111 | 48.15788 | 38104 ft | 474 kts | 210° |
| 2026-04-21 21:07 | -17.58844 | 48.13852 | 37391 ft | 473 kts | 210° |
| 2026-04-21 21:07 | -17.61567 | 48.11922 | 36700 ft | 472 kts | 210° |
| 2026-04-21 21:07 | -17.64290 | 48.09991 | 36012 ft | 471 kts | 209° |
| 2026-04-21 21:08 | -17.66977 | 48.08086 | 35312 ft | 470 kts | 209° |
| 2026-04-21 21:08 | -17.69687 | 48.06163 | 34577 ft | 470 kts | 209° |
| 2026-04-21 21:08 | -17.72400 | 48.04238 | 33803 ft | 470 kts | 209° |
| 2026-04-21 21:08 | -17.75114 | 48.02313 | 32853 ft | 473 kts | 209° |
| 2026-04-21 21:09 | -17.77858 | 48.00367 | 31952 ft | 475 kts | 209° |
| 2026-04-21 21:09 | -17.80598 | 47.98421 | 31075 ft | 477 kts | 209° |
| 2026-04-21 21:09 | -17.83325 | 47.96484 | 30155 ft | 480 kts | 209° |
| 2026-04-21 21:09 | -17.86097 | 47.94514 | 29173 ft | 482 kts | 210° |
| 2026-04-21 21:10 | -17.88878 | 47.92536 | 28462 ft | 478 kts | 210° |
| 2026-04-21 21:10 | -17.91621 | 47.90583 | 27755 ft | 474 kts | 210° |
| 2026-04-21 21:10 | -17.94317 | 47.88663 | 27079 ft | 471 kts | 210° |
| 2026-04-21 21:10 | -17.97026 | 47.86734 | 26404 ft | 468 kts | 210° |
| 2026-04-21 21:11 | -17.99719 | 47.84815 | 25725 ft | 465 kts | 210° |
| 2026-04-21 21:11 | -18.02390 | 47.82912 | 25040 ft | 462 kts | 210° |
| 2026-04-21 21:11 | -18.05050 | 47.81016 | 24364 ft | 460 kts | 211° |
| 2026-04-21 21:11 | -18.07707 | 47.79122 | 23677 ft | 458 kts | 211° |
| 2026-04-21 21:12 | -18.10298 | 47.77275 | 22937 ft | 455 kts | 211° |
| 2026-04-21 21:12 | -18.12910 | 47.75411 | 22247 ft | 450 kts | 211° |
| 2026-04-21 21:12 | -18.15488 | 47.73570 | 21591 ft | 446 kts | 211° |
| 2026-04-21 21:12 | -18.18044 | 47.71744 | 20927 ft | 442 kts | 211° |
| 2026-04-21 21:13 | -18.20574 | 47.69936 | 20270 ft | 438 kts | 211° |
| 2026-04-21 21:13 | -18.23095 | 47.68135 | 19597 ft | 435 kts | 211° |
| 2026-04-21 21:13 | -18.25595 | 47.66347 | 18922 ft | 433 kts | 211° |
| 2026-04-21 21:13 | -18.28081 | 47.64570 | 18193 ft | 431 kts | 211° |
| 2026-04-21 21:14 | -18.30522 | 47.62824 | 17479 ft | 427 kts | 211° |
| 2026-04-21 21:14 | -18.32968 | 47.61074 | 16799 ft | 423 kts | 212° |
| 2026-04-21 21:14 | -18.35398 | 47.59334 | 16115 ft | 419 kts | 212° |
| 2026-04-21 21:14 | -18.37791 | 47.57600 | 15440 ft | 416 kts | 214° |
| 2026-04-21 21:15 | -18.39963 | 47.55579 | 14670 ft | 418 kts | 224° |
| 2026-04-21 21:15 | -18.41953 | 47.53334 | 13919 ft | 417 kts | 225° |
| 2026-04-21 21:15 | -18.43898 | 47.51080 | 13154 ft | 413 kts | 226° |
| 2026-04-21 21:15 | -18.45799 | 47.48880 | 12470 ft | 409 kts | 226° |
| 2026-04-21 21:16 | -18.47706 | 47.46678 | 11785 ft | 404 kts | 226° |
| 2026-04-21 21:16 | -18.49571 | 47.44528 | 11430 ft | 381 kts | 226° |
| 2026-04-21 21:16 | -18.51276 | 47.42560 | 11298 ft | 347 kts | 226° |
| 2026-04-21 21:16 | -18.52833 | 47.40765 | 11149 ft | 317 kts | 226° |
| 2026-04-21 21:17 | -18.54289 | 47.39091 | 11044 ft | 302 kts | 226° |
| 2026-04-21 21:17 | -18.55685 | 47.37485 | 10917 ft | 291 kts | 226° |
| 2026-04-21 21:17 | -18.57030 | 47.35937 | 10797 ft | 289 kts | 226° |
| 2026-04-21 21:17 | -18.58386 | 47.34376 | 10697 ft | 289 kts | 226° |
| 2026-04-21 21:18 | -18.59750 | 47.32807 | 10485 ft | 289 kts | 226° |
| 2026-04-21 21:18 | -18.61105 | 47.31246 | 10160 ft | 288 kts | 226° |
| 2026-04-21 21:18 | -18.62488 | 47.29656 | 9877 ft | 301 kts | 226° |
| 2026-04-21 21:18 | -18.63910 | 47.28016 | 9762 ft | 300 kts | 226° |
| 2026-04-21 21:19 | -18.65277 | 47.26437 | 9587 ft | 290 kts | 226° |
| 2026-04-21 21:19 | -18.66643 | 47.24884 | 9239 ft | 286 kts | 223° |
| 2026-04-21 21:19 | -18.68263 | 47.23728 | 8885 ft | 278 kts | 197° |
| 2026-04-21 21:19 | -18.70113 | 47.23273 | 8567 ft | 271 kts | 186° |
| 2026-04-21 21:20 | -18.71343 | 47.23073 | 8410 ft | 266 kts | 185° |
| 2026-04-21 21:20 | -18.73697 | 47.22959 | 8273 ft | 244 kts | 165° |
| 2026-04-21 21:20 | -18.75169 | 47.23651 | 8189 ft | 224 kts | 138° |
| 2026-04-21 21:20 | -18.75854 | 47.24423 | 8147 ft | 211 kts | 121° |
| 2026-04-21 21:21 | -18.76478 | 47.26235 | 8017 ft | 192 kts | 98° |
| 2026-04-21 21:21 | -18.76602 | 47.27164 | 7848 ft | 187 kts | 97° |
| 2026-04-21 21:21 | -18.76864 | 47.28903 | 7453 ft | 176 kts | 99° |
| 2026-04-21 21:21 | -18.77054 | 47.30143 | 7250 ft | 166 kts | 99° |
| 2026-04-21 21:22 | -18.77172 | 47.30939 | 7094 ft | 159 kts | 99° |
| 2026-04-21 21:22 | -18.77336 | 47.32039 | 6888 ft | 147 kts | 99° |
| 2026-04-21 21:22 | -18.77489 | 47.33063 | 6715 ft | 136 kts | 100° |
| 2026-04-21 21:22 | -18.77635 | 47.34045 | 6559 ft | 135 kts | 99° |
| 2026-04-21 21:23 | -18.77781 | 47.35027 | 6374 ft | 135 kts | 99° |
| 2026-04-21 21:23 | -18.77927 | 47.36011 | 6206 ft | 136 kts | 100° |
| 2026-04-21 21:23 | -18.78072 | 47.36985 | 6020 ft | 135 kts | 99° |
| 2026-04-21 21:23 | -18.78217 | 47.37964 | 5852 ft | 134 kts | 101° |
| 2026-04-21 21:24 | -18.78362 | 47.38937 | 5669 ft | 135 kts | 101° |
| 2026-04-21 21:24 | -18.78510 | 47.39931 | 5495 ft | 138 kts | 101° |
| 2026-04-21 21:24 | -18.78660 | 47.40936 | 5317 ft | 139 kts | 100° |
| 2026-04-21 21:24 | -18.78809 | 47.41943 | 5118 ft | 140 kts | 101° |
| 2026-04-21 21:25 | -18.78947 | 47.42963 | 4849 ft | 140 kts | 100° |
| 2026-04-21 21:25 | -18.79095 | 47.43967 | 4671 ft | 141 kts | 102° |
| 2026-04-21 21:25 | -18.79252 | 47.44996 | 4505 ft | 143 kts | 102° |
| 2026-04-21 21:25 | -18.79405 | 47.46026 | 4289 ft | 141 kts | 101° |
| 2026-04-21 21:26 | -18.79563 | 47.47045 | 4169 ft | 137 kts | 102° |
| 2026-04-21 21:26 | -18.79682 | 47.47816 | 4169 ft | 63 kts | 99° |
| 2026-04-21 21:26 | -18.79721 | 47.48071 | 4170 ft | 11 kts | 101° |
| 2026-04-21 21:26 | -18.79725 | 47.48081 | 4170 ft | 3 kts | 114° |
| 2026-04-21 21:27 | -18.79753 | 47.48112 | 4170 ft | 9 kts | 152° |
| 2026-04-21 21:27 | -18.79826 | 47.48112 | 4171 ft | 13 kts | 188° |
| 2026-04-21 21:27 | -18.79899 | 47.48062 | 4172 ft | 15 kts | 261° |
| 2026-04-21 21:27 | -18.79890 | 47.47935 | 4172 ft | 15 kts | 261° |
| 2026-04-21 21:28 | -18.79898 | 47.47927 | 4172 ft | 2 kts | 217° |
| 2026-04-21 21:28 | -18.79942 | 47.47925 | 4172 ft | 12 kts | 186° |
| 2026-04-21 21:28 | -18.79984 | 47.47918 | 4172 ft | 0 kts | 188° |